createdAt,value
2018-03-24T00:00:02.186Z,35.35
2018-03-24T00:02:31.476Z,39.07
2018-03-24T00:05:00.260Z,40.57
2018-03-24T00:07:29.338Z,33.20
2018-03-24T00:09:58.722Z,33.03
2018-03-24T00:12:29.779Z,32.53
2018-03-24T00:14:59.129Z,33.20
2018-03-24T00:17:28.121Z,32.10
2018-03-24T00:19:57.347Z,35.10
2018-03-24T00:22:26.059Z,33.30
2018-03-24T00:24:55.514Z,33.43
2018-03-24T00:27:24.872Z,34.73
2018-03-24T00:29:53.791Z,37.42
2018-03-24T00:32:23.392Z,38.33
2018-03-24T00:34:52.777Z,36.40
2018-03-24T00:37:22.267Z,35.10
2018-03-24T00:39:51.474Z,38.57
2018-03-24T00:42:20.468Z,33.50
2018-03-24T00:44:49.043Z,35.60
2018-03-24T00:47:18.928Z,34.88
2018-03-24T00:49:48.554Z,42.45
2018-03-24T00:52:18.821Z,36.80
2018-03-24T00:54:48.222Z,36.00
2018-03-24T00:57:18.057Z,38.63
2018-03-24T00:59:47.997Z,38.67
2018-03-24T01:02:16.735Z,37.47
2018-03-24T01:04:45.369Z,39.42
2018-03-24T01:07:14.061Z,37.43
2018-03-24T01:09:42.960Z,39.90
2018-03-24T01:12:12.012Z,36.00
2018-03-24T01:14:40.930Z,38.28
2018-03-24T01:17:09.558Z,38.50
2018-03-24T01:19:38.403Z,34.97
2018-03-24T01:22:06.832Z,41.07
2018-03-24T01:24:36.672Z,38.70
2018-03-24T01:27:06.546Z,37.87
2018-03-24T01:29:35.035Z,39.67
2018-03-24T01:32:03.763Z,40.17
2018-03-24T01:34:32.507Z,39.10
2018-03-24T01:37:01.302Z,39.53
2018-03-24T01:39:30.399Z,37.50
2018-03-24T01:41:59.210Z,37.90
2018-03-24T01:44:27.623Z,38.20
2018-03-24T01:46:56.553Z,37.53
2018-03-24T01:49:25.194Z,40.37
2018-03-24T01:51:54.196Z,38.75
2018-03-24T01:54:22.762Z,39.50
2018-03-24T01:56:51.727Z,36.93
2018-03-24T01:59:19.980Z,38.90
2018-03-24T02:01:48.324Z,41.93
2018-03-24T02:04:17.172Z,38.67
2018-03-24T02:06:46.229Z,40.78
2018-03-24T02:09:15.240Z,41.50
2018-03-24T02:11:44.355Z,39.83
2018-03-24T02:14:13.646Z,43.67
2018-03-24T02:16:42.864Z,41.53
2018-03-24T02:19:11.547Z,43.87
2018-03-24T02:21:41.021Z,42.75
2018-03-24T02:24:10.127Z,45.43
2018-03-24T02:26:39.428Z,44.43
2018-03-24T02:29:08.959Z,40.07
2018-03-24T02:31:37.943Z,41.70
2018-03-24T02:34:08.133Z,38.80
2018-03-24T02:36:37.633Z,41.03
2018-03-24T02:39:06.472Z,33.13
2018-03-24T02:41:35.494Z,41.03
2018-03-24T02:44:05.077Z,39.33
2018-03-24T02:46:34.536Z,41.30
2018-03-24T02:49:03.092Z,41.23
2018-03-24T02:51:31.856Z,38.70
2018-03-24T02:54:01.040Z,39.53
2018-03-24T02:56:29.980Z,41.10
2018-03-24T02:58:58.824Z,38.50
2018-03-24T03:01:28.359Z,40.60
2018-03-24T03:03:57.871Z,44.00
2018-03-24T03:06:27.138Z,43.57
2018-03-24T03:08:56.359Z,40.40
2018-03-24T03:11:25.662Z,43.50
2018-03-24T03:13:55.476Z,43.57
2018-03-24T03:16:24.295Z,41.23
2018-03-24T03:18:53.374Z,43.23
2018-03-24T03:21:23.812Z,40.97
2018-03-24T03:23:52.572Z,44.83
2018-03-24T03:26:22.067Z,47.60
2018-03-24T03:28:51.047Z,47.13
2018-03-24T03:31:20.582Z,43.30
2018-03-24T03:33:49.591Z,50.23
2018-03-24T03:36:18.441Z,44.73
2018-03-24T03:38:46.814Z,49.87
2018-03-24T03:41:15.397Z,46.50
2018-03-24T03:43:44.121Z,45.42
2018-03-24T03:46:12.796Z,46.80
2018-03-24T03:48:41.465Z,45.83
2018-03-24T03:51:10.221Z,49.20
2018-03-24T03:53:38.948Z,46.30
2018-03-24T03:56:07.734Z,41.00
2018-03-24T03:58:37.208Z,39.70
2018-03-24T04:01:08.467Z,41.07
2018-03-24T04:03:38.045Z,41.67
2018-03-24T04:06:07.844Z,39.40
2018-03-24T04:08:36.350Z,43.20
2018-03-24T04:11:07.377Z,45.43
2018-03-24T04:13:36.382Z,46.30
2018-03-24T04:16:06.390Z,46.00
2018-03-24T04:18:35.931Z,45.70
2018-03-24T04:21:06.186Z,44.33
2018-03-24T04:23:35.916Z,41.13
2018-03-24T04:26:05.080Z,38.70
2018-03-24T04:28:34.669Z,35.93
2018-03-24T04:31:04.161Z,32.13
2018-03-24T04:33:34.114Z,31.63
2018-03-24T04:36:02.744Z,30.90
2018-03-24T04:38:32.073Z,32.30
2018-03-24T04:41:01.437Z,28.23
2018-03-24T04:43:30.439Z,28.57
2018-03-24T04:46:00.016Z,30.93
2018-03-24T04:48:30.515Z,35.67
2018-03-24T04:51:00.090Z,33.53
2018-03-24T04:53:29.611Z,35.33
2018-03-24T04:55:59.218Z,34.10
2018-03-24T04:58:29.421Z,36.83
2018-03-24T05:00:58.465Z,60.07
2018-03-24T05:03:27.895Z,49.27
2018-03-24T05:05:57.031Z,51.33
2018-03-24T05:08:27.275Z,39.20
2018-03-24T05:10:56.974Z,48.97
2018-03-24T05:13:28.995Z,60.88
2018-03-24T05:15:58.596Z,59.03
2018-03-24T05:18:28.168Z,45.83
2018-03-24T05:20:56.981Z,37.47
2018-03-24T05:23:26.204Z,35.37
2018-03-24T05:25:55.454Z,35.45
2018-03-24T05:28:23.877Z,32.28
2018-03-24T05:30:53.164Z,42.03
2018-03-24T05:33:22.481Z,39.27
2018-03-24T05:35:51.569Z,40.70
2018-03-24T05:38:20.982Z,65.37
2018-03-24T05:40:50.202Z,71.70
2018-03-24T05:43:19.219Z,65.27
2018-03-24T05:45:48.934Z,60.50
2018-03-24T05:48:19.117Z,62.35
2018-03-24T05:50:48.964Z,54.20
2018-03-24T05:53:18.148Z,45.53
2018-03-24T05:55:47.595Z,61.63
2018-03-24T05:58:16.001Z,37.10
2018-03-24T06:00:44.203Z,51.07
2018-03-24T06:03:12.266Z,32.90
2018-03-24T06:05:40.165Z,29.63
2018-03-24T06:08:09.413Z,30.90
2018-03-24T06:10:38.416Z,32.70
2018-03-24T06:13:08.094Z,29.80
2018-03-24T06:15:37.373Z,27.70
2018-03-24T06:18:05.371Z,31.40
2018-03-24T06:20:35.275Z,32.17
2018-03-24T06:23:04.229Z,34.00
2018-03-24T06:25:33.067Z,34.08
2018-03-24T06:28:02.023Z,32.40
2018-03-24T06:30:32.122Z,37.77
2018-03-24T06:33:01.094Z,41.37
2018-03-24T06:35:29.824Z,38.23
2018-03-24T06:37:58.505Z,34.87
2018-03-24T06:40:27.228Z,34.92
2018-03-24T06:42:56.841Z,31.70
2018-03-24T06:45:26.348Z,26.98
2018-03-24T06:47:55.091Z,33.00
2018-03-24T06:50:23.172Z,30.83
2018-03-24T06:52:51.889Z,31.27
2018-03-24T06:55:20.492Z,30.53
2018-03-24T06:57:47.914Z,29.93
2018-03-24T07:00:15.339Z,23.43
2018-03-24T07:02:42.816Z,26.12
2018-03-24T07:05:11.702Z,25.40
2018-03-24T07:07:40.908Z,28.13
2018-03-24T07:10:10.593Z,29.90
2018-03-24T07:12:39.244Z,30.43
2018-03-24T07:15:08.722Z,30.87
2018-03-24T07:17:37.987Z,29.40
2018-03-24T07:20:07.536Z,29.17
2018-03-24T07:22:36.800Z,28.80
2018-03-24T07:25:05.216Z,30.27
2018-03-24T07:27:34.479Z,33.03
2018-03-24T07:30:03.028Z,33.20
2018-03-24T07:32:32.082Z,36.20
2018-03-24T07:35:00.693Z,31.20
2018-03-24T07:37:30.142Z,33.63
2018-03-24T07:39:59.319Z,32.33
2018-03-24T07:42:28.124Z,33.97
2018-03-24T07:44:57.368Z,33.43
2018-03-24T07:47:26.954Z,33.77
2018-03-24T07:49:54.507Z,32.97
2018-03-24T07:52:23.449Z,34.90
2018-03-24T07:54:52.172Z,36.57
2018-03-24T07:57:20.944Z,34.30
2018-03-24T07:59:50.195Z,35.37
2018-03-24T08:02:19.163Z,33.50
2018-03-24T08:04:48.069Z,36.67
2018-03-24T08:07:16.848Z,36.60
2018-03-24T08:09:45.222Z,34.50
2018-03-24T08:12:14.935Z,33.33
2018-03-24T08:14:43.309Z,33.47
2018-03-24T08:17:12.899Z,34.67
2018-03-24T08:19:41.485Z,32.70
2018-03-24T08:22:10.472Z,33.00
2018-03-24T08:24:38.913Z,33.77
2018-03-24T08:27:07.587Z,34.80
2018-03-24T08:29:36.442Z,32.40
2018-03-24T08:32:05.195Z,32.88
2018-03-24T08:34:33.950Z,34.63
2018-03-24T08:37:02.775Z,35.03
2018-03-24T08:39:31.111Z,34.43
2018-03-24T08:42:00.050Z,32.33
2018-03-24T08:44:28.631Z,37.03
2018-03-24T08:46:57.598Z,33.67
2018-03-24T08:49:26.821Z,27.93
2018-03-24T08:51:55.681Z,31.77
2018-03-24T08:54:24.124Z,32.23
2018-03-24T08:56:52.261Z,32.93
2018-03-24T08:59:22.054Z,29.67
2018-03-24T09:01:51.331Z,28.97
2018-03-24T09:04:20.239Z,28.23
2018-03-24T09:06:49.200Z,29.40
2018-03-24T09:09:18.094Z,29.03
2018-03-24T09:11:46.603Z,27.30
2018-03-24T09:14:15.196Z,31.70
2018-03-24T09:16:44.753Z,31.90
2018-03-24T09:19:13.754Z,27.17
2018-03-24T09:21:42.465Z,30.00
2018-03-24T09:24:11.125Z,28.97
2018-03-24T09:26:39.561Z,25.20
2018-03-24T09:29:08.642Z,25.88
2018-03-24T09:31:37.902Z,31.30
2018-03-24T09:34:06.831Z,29.30
2018-03-24T09:36:36.838Z,27.50
2018-03-24T09:39:05.796Z,21.85
2018-03-24T09:41:34.301Z,20.80
2018-03-24T09:44:04.231Z,20.27
2018-03-24T09:46:33.723Z,20.83
2018-03-24T09:49:02.855Z,19.97
2018-03-24T09:51:31.839Z,18.20
2018-03-24T09:54:00.573Z,16.60
2018-03-24T09:56:29.276Z,17.80
2018-03-24T09:58:57.863Z,17.60
2018-03-24T10:01:26.526Z,17.57
2018-03-24T10:03:59.158Z,16.13
2018-03-24T10:06:28.150Z,14.53
2018-03-24T10:08:56.954Z,14.95
2018-03-24T10:11:25.698Z,15.63
2018-03-24T10:14:00.448Z,14.70
2018-03-24T10:16:29.768Z,15.33
2018-03-24T10:18:58.966Z,13.40
2018-03-24T10:24:29.150Z,10.95
2018-03-24T10:26:57.730Z,12.43
2018-03-24T10:29:27.269Z,12.43
2018-03-24T10:31:56.044Z,13.20
2018-03-24T10:34:25.632Z,10.60
2018-03-24T10:36:54.367Z,9.90
2018-03-24T10:39:23.483Z,12.00
2018-03-24T10:41:52.426Z,10.70
2018-03-24T10:44:22.474Z,11.75
2018-03-24T10:46:51.224Z,10.98
2018-03-24T10:49:20.156Z,12.87
2018-03-24T10:51:48.683Z,13.20
2018-03-24T10:54:17.739Z,14.50
2018-03-24T10:56:46.447Z,14.57
2018-03-24T10:59:15.034Z,13.30
2018-03-24T11:01:42.459Z,12.97
2018-03-24T11:04:11.377Z,13.55
2018-03-24T11:06:41.033Z,13.93
2018-03-24T11:09:10.051Z,15.60
2018-03-24T11:11:38.629Z,13.83
2018-03-24T11:14:08.229Z,12.95
2018-03-24T11:16:38.029Z,11.35
2018-03-24T11:19:07.123Z,14.87
2018-03-24T11:21:35.700Z,14.00
2018-03-24T11:24:04.471Z,15.27
2018-03-24T11:26:33.311Z,13.23
2018-03-24T11:29:02.321Z,13.75
2018-03-24T11:31:32.257Z,11.43
2018-03-24T11:34:01.600Z,12.30
2018-03-24T11:36:30.226Z,13.63
2018-03-24T11:39:01.848Z,13.20
2018-03-24T11:41:31.011Z,13.27
2018-03-24T11:44:00.463Z,14.20
2018-03-24T11:46:29.490Z,12.97
2018-03-24T11:48:58.811Z,13.37
2018-03-24T11:51:27.407Z,12.00
2018-03-24T11:53:55.657Z,13.50
2018-03-24T11:56:24.812Z,11.70
2018-03-24T11:58:52.928Z,11.75
2018-03-24T12:01:22.365Z,13.87
2018-03-24T12:03:51.469Z,14.97
2018-03-24T12:06:20.464Z,15.03
2018-03-24T12:08:49.754Z,14.17
2018-03-24T12:11:18.542Z,14.50
2018-03-24T12:13:48.407Z,14.17
2018-03-24T12:16:17.193Z,12.60
2018-03-24T12:18:48.468Z,13.80
2018-03-24T12:21:19.170Z,14.40
2018-03-24T12:23:49.716Z,12.40
2018-03-24T12:26:19.199Z,12.30
2018-03-24T12:28:48.425Z,12.05
2018-03-24T12:31:17.199Z,12.80
2018-03-24T12:33:47.148Z,12.93
2018-03-24T12:36:17.212Z,12.43
2018-03-24T12:38:44.902Z,11.60
2018-03-24T12:41:13.927Z,12.63
2018-03-24T12:43:43.315Z,10.23
2018-03-24T12:46:14.395Z,11.27
2018-03-24T12:48:41.925Z,11.00
2018-03-24T12:51:23.572Z,11.33
2018-03-24T12:53:52.803Z,11.30
2018-03-24T12:56:20.509Z,12.00
2018-03-24T12:58:47.931Z,12.30
2018-03-24T13:01:15.342Z,10.93
2018-03-24T13:03:42.830Z,12.30
2018-03-24T13:06:10.246Z,10.17
2018-03-24T13:08:37.665Z,10.50
2018-03-24T13:11:05.093Z,11.30
2018-03-24T13:13:32.510Z,12.37
2018-03-24T13:15:59.926Z,11.10
2018-03-24T13:18:27.336Z,9.67
2018-03-24T13:20:54.767Z,11.77
2018-03-24T13:23:22.188Z,10.30
2018-03-24T13:25:49.602Z,10.37
2018-03-24T13:28:17.054Z,13.10
2018-03-24T13:30:44.509Z,10.30
2018-03-24T13:33:11.975Z,10.00
2018-03-24T13:35:39.432Z,9.83
2018-03-24T13:38:07.025Z,9.37
2018-03-24T13:40:34.495Z,10.23
2018-03-24T13:43:01.923Z,10.60
2018-03-24T13:45:29.346Z,10.20
2018-03-24T13:47:56.823Z,10.37
2018-03-24T13:50:24.270Z,10.20
2018-03-24T13:52:51.674Z,10.60
2018-03-24T13:55:19.110Z,9.83
2018-03-24T13:57:46.647Z,9.30
2018-03-24T14:00:16.177Z,11.10
2018-03-24T14:02:44.586Z,10.05
2018-03-24T14:05:12.018Z,10.40
2018-03-24T14:07:39.450Z,9.90
2018-03-24T14:10:06.928Z,10.60
2018-03-24T14:12:34.391Z,10.20
2018-03-24T14:15:01.830Z,11.18
2018-03-24T14:17:29.289Z,11.40
2018-03-24T14:19:57.044Z,11.00
2018-03-24T14:22:24.507Z,9.50
2018-03-24T14:24:51.968Z,10.30
2018-03-24T14:27:19.417Z,11.30
2018-03-24T14:29:46.875Z,9.63
2018-03-24T14:32:14.336Z,10.03
2018-03-24T14:34:41.833Z,10.02
2018-03-24T14:37:09.253Z,9.97
2018-03-24T14:39:36.745Z,10.20
2018-03-24T14:42:04.170Z,11.70
2018-03-24T14:44:31.622Z,12.30
2018-03-24T14:46:59.079Z,12.77
2018-03-24T14:49:26.539Z,10.97
2018-03-24T14:51:54.005Z,10.13
2018-03-24T14:54:21.453Z,11.63
2018-03-24T14:56:48.917Z,11.20
2018-03-24T14:59:16.703Z,9.93
2018-03-24T15:01:44.148Z,10.80
2018-03-24T15:04:11.932Z,11.00
2018-03-24T15:06:39.382Z,10.13
2018-03-24T15:09:06.818Z,10.48
2018-03-24T15:11:34.374Z,9.93
2018-03-24T15:14:01.828Z,10.43
2018-03-24T15:16:29.279Z,10.67
2018-03-24T15:18:56.677Z,9.40
2018-03-24T15:21:24.114Z,10.87
2018-03-24T15:23:51.600Z,11.00
2018-03-24T15:26:19.034Z,10.80
2018-03-24T15:28:59.003Z,12.60
2018-03-24T15:31:38.232Z,9.97
2018-03-24T15:34:17.644Z,9.83
2018-03-24T15:36:46.909Z,10.23
2018-03-24T15:39:14.539Z,10.57
2018-03-24T15:41:41.909Z,9.93
2018-03-24T15:44:09.334Z,11.37
2018-03-24T15:46:36.781Z,10.53
2018-03-24T15:49:04.238Z,10.03
2018-03-24T15:51:31.912Z,10.40
2018-03-24T15:53:59.328Z,9.33
2018-03-24T15:56:26.742Z,9.95
2018-03-24T15:58:54.163Z,11.60
2018-03-24T16:01:21.574Z,9.33
2018-03-24T16:03:48.997Z,10.37
2018-03-24T16:06:16.440Z,10.67
2018-03-24T16:08:44.001Z,10.67
2018-03-24T16:11:11.546Z,9.60
2018-03-24T16:13:38.944Z,9.53
2018-03-24T16:16:06.373Z,9.63
2018-03-24T16:18:33.786Z,8.47
2018-03-24T16:21:01.202Z,9.80
2018-03-24T16:23:28.655Z,10.57
2018-03-24T16:25:56.099Z,9.53
2018-03-24T16:28:23.568Z,8.82
2018-03-24T16:30:51.018Z,9.57
2018-03-24T16:33:18.878Z,10.35
2018-03-24T16:35:46.375Z,9.00
2018-03-24T16:38:13.799Z,10.13
2018-03-24T16:40:41.246Z,9.50
2018-03-24T16:43:08.670Z,9.80
2018-03-24T16:45:36.086Z,11.93
2018-03-24T16:48:03.530Z,10.20
2018-03-24T16:50:30.988Z,12.02
2018-03-24T16:52:58.464Z,10.47
2018-03-24T16:55:25.904Z,12.40
2018-03-24T16:57:53.360Z,11.50
2018-03-24T17:00:20.828Z,11.70
2018-03-24T17:02:48.286Z,10.90
2018-03-24T17:05:15.736Z,11.27
2018-03-24T17:07:43.191Z,11.57
2018-03-24T17:10:10.649Z,11.20
2018-03-24T17:12:38.110Z,12.50
2018-03-24T17:15:05.568Z,12.02
2018-03-24T17:17:33.035Z,12.03
2018-03-24T17:20:00.598Z,13.13
2018-03-24T17:22:28.029Z,12.50
2018-03-24T17:24:55.487Z,13.27
2018-03-24T17:27:22.924Z,13.00
2018-03-24T17:29:50.619Z,12.43
2018-03-24T17:32:18.077Z,13.10
2018-03-24T17:34:45.753Z,14.03
2018-03-24T17:37:13.332Z,13.07
2018-03-24T17:39:40.762Z,12.83
2018-03-24T17:42:08.215Z,12.82
2018-03-24T17:44:35.702Z,13.97
2018-03-24T17:47:03.554Z,14.37
2018-03-24T17:49:30.998Z,14.20
2018-03-24T17:51:58.399Z,14.52
2018-03-24T17:54:25.898Z,13.73
2018-03-24T17:56:53.296Z,13.83
2018-03-24T17:59:20.742Z,14.30
2018-03-24T18:01:48.154Z,15.30
2018-03-24T18:04:15.583Z,15.37
2018-03-24T18:06:42.999Z,15.57
2018-03-24T18:09:10.437Z,15.17
2018-03-24T18:11:37.852Z,16.77
2018-03-24T18:14:06.131Z,15.93
2018-03-24T18:16:33.786Z,14.03
2018-03-24T18:19:01.210Z,15.30
2018-03-24T18:21:28.690Z,16.60
2018-03-24T18:23:56.115Z,15.35
2018-03-24T18:26:23.796Z,16.80
2018-03-24T18:28:51.592Z,21.60
2018-03-24T18:31:19.026Z,21.37
2018-03-24T18:33:46.463Z,20.50
2018-03-24T18:36:14.546Z,20.60
2018-03-24T18:38:41.993Z,21.10
2018-03-24T18:41:09.389Z,29.37
2018-03-24T18:43:36.825Z,30.27
2018-03-24T18:46:04.274Z,28.97
2018-03-24T18:48:31.752Z,24.50
2018-03-24T18:50:59.214Z,23.13
2018-03-24T18:53:26.733Z,25.77
2018-03-24T18:55:54.218Z,26.10
2018-03-24T18:58:22.326Z,22.92
2018-03-24T19:00:49.807Z,23.33
2018-03-24T19:03:17.359Z,21.50
2018-03-24T19:05:46.096Z,18.53
2018-03-24T19:08:13.568Z,21.50
2018-03-24T19:10:41.101Z,25.60
2018-03-24T19:13:08.554Z,23.20
2018-03-24T19:15:35.959Z,21.80
2018-03-24T19:18:03.402Z,21.70
2018-03-24T19:20:30.850Z,18.00
2018-03-24T19:22:58.294Z,20.03
2018-03-24T19:25:25.744Z,21.60
2018-03-24T19:27:53.203Z,19.80
2018-03-24T19:30:20.665Z,19.97
2018-03-24T19:32:48.122Z,20.27
2018-03-24T19:35:15.584Z,19.37
2018-03-24T19:37:43.034Z,20.67
2018-03-24T19:40:10.504Z,19.33
2018-03-24T19:42:37.969Z,19.53
2018-03-24T19:45:05.518Z,18.58
2018-03-24T19:47:32.956Z,19.03
2018-03-24T19:50:00.370Z,19.20
2018-03-24T19:52:27.837Z,17.48
2018-03-24T19:54:55.246Z,17.20
2018-03-24T19:57:22.724Z,18.45
2018-03-24T19:59:50.171Z,20.03
2018-03-24T20:02:17.687Z,18.90
2018-03-24T20:04:45.160Z,17.97
2018-03-24T20:07:12.564Z,18.27
2018-03-24T20:09:39.980Z,19.00
2018-03-24T20:12:07.447Z,19.37
2018-03-24T20:14:34.857Z,19.13
2018-03-24T20:17:02.283Z,19.20
2018-03-24T20:19:30.530Z,18.63
2018-03-24T20:21:57.986Z,18.10
2018-03-24T20:24:25.395Z,16.57
2018-03-24T20:26:52.913Z,18.80
2018-03-24T20:29:20.362Z,19.57
2018-03-24T20:31:48.055Z,21.60
2018-03-24T20:34:15.502Z,21.20
2018-03-24T20:36:42.988Z,19.20
2018-03-24T20:39:10.410Z,20.13
2018-03-24T20:41:37.861Z,18.57
2018-03-24T20:44:05.322Z,20.53
2018-03-24T20:46:32.793Z,18.13
2018-03-24T20:49:00.243Z,21.08
2018-03-24T20:51:27.781Z,19.73
2018-03-24T20:53:55.547Z,19.92
2018-03-24T20:56:22.978Z,19.60
2018-03-24T20:58:50.403Z,19.53
2018-03-24T21:01:17.862Z,18.93
2018-03-24T21:03:45.540Z,21.17
2018-03-24T21:06:18.160Z,18.52
2018-03-24T21:08:49.538Z,19.63
2018-03-24T21:11:19.893Z,19.80
2018-03-24T21:13:59.982Z,18.37
2018-03-24T21:16:35.407Z,19.20
2018-03-24T21:19:08.769Z,19.13
2018-03-24T21:21:37.864Z,19.30
2018-03-24T21:26:53.049Z,17.53
2018-03-24T21:29:20.457Z,19.52
2018-03-24T21:31:47.864Z,21.17
2018-03-24T21:34:15.288Z,18.47
2018-03-24T21:36:42.700Z,18.60
2018-03-24T21:39:10.129Z,16.40
2018-03-24T21:41:38.517Z,17.63
2018-03-24T21:44:06.152Z,19.20
2018-03-24T21:46:33.566Z,18.37
2018-03-24T21:49:00.992Z,20.50
2018-03-24T21:51:28.397Z,22.53
2018-03-24T21:53:56.662Z,17.23
2018-03-24T21:56:24.076Z,20.20
2018-03-24T21:58:51.525Z,19.00
2018-03-24T22:02:39.620Z,17.70
2018-03-24T22:05:07.204Z,20.33
2018-03-24T22:07:34.614Z,22.23
2018-03-24T22:10:02.066Z,22.37
2018-03-24T22:12:29.795Z,24.60
2018-03-24T22:14:58.229Z,22.52
2018-03-24T22:17:25.655Z,21.70
2018-03-24T22:19:53.073Z,22.13
2018-03-24T22:22:20.567Z,21.57
2018-03-24T22:24:47.996Z,21.00
2018-03-24T22:27:15.428Z,23.17
2018-03-24T22:29:42.970Z,23.80
2018-03-24T22:32:10.413Z,21.57
2018-03-24T22:34:37.832Z,20.10
2018-03-24T22:37:05.235Z,20.30
2018-03-24T22:39:32.661Z,21.20
2018-03-24T22:42:00.069Z,21.67
2018-03-24T22:44:27.492Z,22.40
2018-03-24T22:46:55.544Z,21.63
2018-03-24T22:49:23.019Z,21.50
2018-03-24T22:51:51.241Z,21.20
2018-03-24T22:54:18.653Z,20.50
2018-03-24T22:56:46.914Z,22.50
2018-03-24T22:59:14.332Z,23.70
2018-03-24T23:01:42.586Z,23.70
2018-03-24T23:04:10.003Z,24.45
2018-03-24T23:06:37.846Z,27.03
2018-03-24T23:09:05.532Z,24.10
2018-03-24T23:11:33.007Z,26.13
2018-03-24T23:14:00.867Z,25.37
2018-03-24T23:16:28.274Z,24.73
2018-03-24T23:18:55.686Z,25.97
2018-03-24T23:21:23.111Z,25.70
2018-03-24T23:23:50.513Z,28.07
2018-03-24T23:26:17.944Z,26.90
2018-03-24T23:28:45.351Z,24.13
2018-03-24T23:31:12.766Z,23.70
2018-03-24T23:33:40.224Z,23.30
2018-03-24T23:36:07.643Z,24.40
2018-03-24T23:38:35.054Z,23.40
2018-03-24T23:41:02.474Z,23.10
2018-03-24T23:43:29.879Z,27.03
2018-03-24T23:45:57.697Z,25.00
2018-03-24T23:48:25.094Z,25.27
2018-03-24T23:50:52.505Z,24.73
2018-03-24T23:53:19.917Z,22.47
2018-03-24T23:55:47.342Z,22.50
2018-03-24T23:58:14.788Z,24.10
